Time;durP1;ratioP1;P1;durP2;ratioP2;P2;SDS_P1;SDS_P2;PMS_P1;PMS_P2;Temp;Humidity;BMP_temperature;BMP_pressure;BME280_temperature;BME280_humidity;BME280_pressure;Samples;Min_cycle;Max_cycle;Signal;HPM_P1;HPM_P2
2024/03/20 00:02:24;;;;;;;5.60;2.88;;;;;;;9.24;84.09;101252.72;5042138;28;20036;-70
2024/03/20 00:04:50;;;;;;;5.13;2.67;;;;;;;9.21;83.82;101256.38;5048196;28;20042;-70
2024/03/20 00:07:16;;;;;;;5.60;3.30;;;;;;;9.19;84.49;101254.81;5041305;28;20080;-70
2024/03/20 00:09:42;;;;;;;7.63;2.88;;;;;;;9.17;85.54;101254.13;5047853;28;20162;-71
2024/03/20 00:12:07;;;;;;;8.45;2.67;;;;;;;9.18;84.20;101253.16;5048810;28;20040;-71
2024/03/20 00:14:33;;;;;;;8.73;2.88;;;;;;;9.24;85.77;101250.94;5043741;28;20056;-70
2024/03/20 00:17:01;;;;;;;8.52;2.38;;;;;;;9.19;83.47;101250.47;5045280;28;20404;-70
2024/03/20 00:19:29;;;;;;;7.15;2.60;;;;;;;9.22;85.58;101249.41;5043152;28;20496;-70
2024/03/20 00:21:55;;;;;;;4.90;2.17;;;;;;;9.25;86.33;101262.16;5043700;28;20431;-70
2024/03/20 00:24:20;;;;;;;5.93;3.10;;;;;;;9.18;86.79;101255.78;5041843;28;20029;-69
2024/03/20 00:26:48;;;;;;;10.15;2.95;;;;;;;9.16;86.85;101257.66;5039370;28;20018;-70
2024/03/20 00:29:15;;;;;;;6.97;3.45;;;;;;;9.17;87.84;101256.72;5036858;28;20125;-69
2024/03/20 00:31:41;;;;;;;5.57;2.50;;;;;;;9.18;88.37;101253.16;5035545;28;20397;-69
2024/03/20 00:34:07;;;;;;;7.43;2.92;;;;;;;9.22;88.73;101258.03;5041565;28;20029;-70
2024/03/20 00:36:32;;;;;;;5.57;2.95;;;;;;;9.25;89.11;101251.75;5045855;28;20445;-70
2024/03/20 00:38:58;;;;;;;5.53;2.70;;;;;;;9.28;89.75;101247.16;5043769;28;20044;-70
2024/03/20 00:41:23;;;;;;;7.85;2.65;;;;;;;9.31;89.84;101251.31;5040522;28;20078;-70
2024/03/20 00:43:49;;;;;;;6.53;2.80;;;;;;;9.28;89.18;101248.94;5040642;28;20473;-70
2024/03/20 00:46:14;;;;;;;5.43;2.42;;;;;;;9.36;88.50;101250.94;5042083;28;20029;-70
2024/03/20 00:48:40;;;;;;;3.95;2.30;;;;;;;9.36;86.06;101245.75;5041859;28;20124;-71
2024/03/20 00:51:05;;;;;;;7.65;2.20;;;;;;;9.44;84.97;101246.81;5048132;28;20090;-70
2024/03/20 00:53:31;;;;;;;5.55;2.22;;;;;;;9.46;84.03;101247.50;5053437;28;20108;-71
2024/03/20 00:55:56;;;;;;;6.22;2.30;;;;;;;9.49;83.22;101247.25;5052178;28;20021;-70
2024/03/20 00:58:22;;;;;;;8.20;2.33;;;;;;;9.51;82.15;101247.97;5051726;28;20045;-70
2024/03/20 01:00:47;;;;;;;5.82;2.20;;;;;;;9.55;82.63;101252.00;5052838;28;20041;-70
2024/03/20 01:03:13;;;;;;;7.32;2.65;;;;;;;9.58;84.11;101241.34;5047419;28;20385;-71
2024/03/20 01:05:39;;;;;;;9.50;2.70;;;;;;;9.57;84.10;101247.50;5045506;28;20082;-70
2024/03/20 01:08:05;;;;;;;7.25;2.45;;;;;;;9.44;82.62;101244.22;5040981;28;20601;-71
2024/03/20 01:10:30;;;;;;;5.88;2.30;;;;;;;9.42;81.11;101245.28;5040292;28;20033;-70
2024/03/20 01:12:56;;;;;;;8.13;2.55;;;;;;;9.44;82.98;101241.63;5042953;28;20025;-70
2024/03/20 01:15:21;;;;;;;5.90;1.70;;;;;;;9.45;83.36;101242.44;5039986;28;20094;-70
2024/03/20 01:17:47;;;;;;;7.45;2.90;;;;;;;9.43;82.24;101239.97;5037357;28;20037;-70
2024/03/20 01:20:13;;;;;;;5.97;2.00;;;;;;;9.44;82.34;101239.03;5048106;28;20037;-71
2024/03/20 01:22:38;;;;;;;5.45;2.38;;;;;;;9.33;79.33;101236.41;5045939;28;20036;-69
2024/03/20 01:25:06;;;;;;;4.15;2.17;;;;;;;9.36;81.83;101230.97;5047783;28;20048;-69
2024/03/20 01:27:32;;;;;;;3.97;2.38;;;;;;;9.39;80.39;101237.72;5046425;28;20037;-69
2024/03/20 01:29:58;;;;;;;5.72;1.85;;;;;;;9.39;80.18;101229.91;5048326;28;20097;-69
2024/03/20 01:32:23;;;;;;;5.40;2.70;;;;;;;9.40;80.55;101235.00;5048703;28;20095;-69
2024/03/20 01:34:49;;;;;;;6.88;2.33;;;;;;;9.39;80.35;101224.72;5044171;28;20029;-70
2024/03/20 01:37:15;;;;;;;7.65;2.25;;;;;;;9.37;80.16;101226.59;5046852;28;20033;-69
2024/03/20 01:39:40;;;;;;;7.47;2.00;;;;;;;9.31;78.99;101226.13;5045034;28;20072;-69
2024/03/20 01:42:06;;;;;;;8.82;2.70;;;;;;;9.32;78.77;101224.34;5049454;28;20507;-69
2024/03/20 01:44:32;;;;;;;6.68;2.53;;;;;;;9.37;79.91;101219.63;5048514;28;20154;-69
2024/03/20 01:46:57;;;;;;;4.80;2.58;;;;;;;9.42;80.71;101224.47;5048079;28;20561;-69
2024/03/20 01:49:23;;;;;;;6.22;2.35;;;;;;;9.35;80.44;101225.88;5042675;28;20045;-69
2024/03/20 01:51:49;;;;;;;4.85;2.05;;;;;;;9.26;79.98;101227.41;5048473;28;20029;-69
2024/03/20 01:54:15;;;;;;;4.28;1.90;;;;;;;9.26;79.50;101222.22;5046693;28;20489;-70
2024/03/20 01:56:42;;;;;;;11.63;2.50;;;;;;;9.31;79.14;101222.69;5042657;28;20059;-69
2024/03/20 01:59:09;;;;;;;5.80;2.20;;;;;;;9.34;80.16;101221.63;5042026;28;20025;-69
2024/03/20 02:01:34;;;;;;;4.90;2.13;;;;;;;9.34;80.08;101225.06;5037904;28;20040;-70
2024/03/20 02:04:00;;;;;;;6.20;2.53;;;;;;;9.38;79.46;101217.84;5040645;28;20020;-70
2024/03/20 02:06:28;;;;;;;4.65;2.08;;;;;;;9.40;78.38;101216.78;5039213;28;20029;-69
2024/03/20 02:08:55;;;;;;;6.47;2.08;;;;;;;9.46;79.60;101213.69;5039546;28;20025;-69
2024/03/20 02:11:21;;;;;;;5.25;2.08;;;;;;;9.48;79.81;101217.00;5042275;28;20027;-69
2024/03/20 02:13:51;;;;;;;5.85;2.15;;;;;;;9.48;78.49;101219.59;5044998;28;20056;-69
2024/03/20 02:16:19;;;;;;;4.68;1.98;;;;;;;9.49;78.93;101220.44;5048292;28;20374;-69
2024/03/20 02:18:46;;;;;;;5.20;1.55;;;;;;;9.49;77.82;101218.66;5045583;28;20040;-69
2024/03/20 02:21:12;;;;;;;4.85;2.20;;;;;;;9.51;77.73;101216.75;5045032;28;20033;-69
2024/03/20 02:23:37;;;;;;;4.45;1.70;;;;;;;9.55;78.21;101215.56;5044712;28;20037;-69
2024/03/20 02:26:06;;;;;;;4.60;1.95;;;;;;;9.53;76.56;101217.47;5037303;28;20039;-69
2024/03/20 02:28:39;;;;;;;4.40;1.67;;;;;;;9.49;74.77;101210.84;5038211;28;20037;-69
2024/03/20 02:31:06;;;;;;;5.47;1.92;;;;;;;9.53;77.09;101199.25;5059110;28;20453;-69
2024/03/20 02:33:32;;;;;;;3.47;1.63;;;;;;;9.53;76.68;101204.47;5041616;28;20128;-69
2024/03/20 02:35:58;;;;;;;6.35;2.15;;;;;;;9.47;76.98;101197.13;5039207;28;20032;-70
2024/03/20 02:38:27;;;;;;;5.03;1.63;;;;;;;9.48;78.37;101197.97;5042956;28;20025;-69
2024/03/20 02:40:54;;;;;;;5.85;1.88;;;;;;;9.50;77.90;101191.69;5039628;28;20036;-69
2024/03/20 02:43:20;;;;;;;5.07;2.03;;;;;;;9.56;79.16;101196.41;5046909;28;20044;-69
2024/03/20 02:45:46;;;;;;;3.97;1.67;;;;;;;9.57;79.69;101192.88;5048904;28;20060;-69
2024/03/20 02:48:13;;;;;;;5.72;1.77;;;;;;;9.57;80.31;101192.03;5041129;28;20231;-69
2024/03/20 02:50:39;;;;;;;3.35;1.52;;;;;;;9.60;78.45;101195.22;5037851;28;20056;-69
2024/03/20 02:53:07;;;;;;;5.95;1.83;;;;;;;9.61;77.63;101191.69;5042408;28;20033;-69
2024/03/20 02:55:36;;;;;;;4.53;1.63;;;;;;;9.59;76.79;101197.97;5040566;28;20083;-69
2024/03/20 02:58:02;;;;;;;3.58;1.83;;;;;;;9.52;77.84;101192.41;5040825;28;20029;-69
2024/03/20 03:00:28;;;;;;;4.93;1.70;;;;;;;9.51;78.77;101197.72;5045020;28;20033;-69
2024/03/20 03:02:54;;;;;;;6.75;1.63;;;;;;;9.46;77.78;101200.69;5047739;28;20032;-69
2024/03/20 03:05:22;;;;;;;3.45;1.65;;;;;;;9.48;77.48;101200.56;5048597;28;20028;-69
2024/03/20 03:07:47;;;;;;;5.88;1.65;;;;;;;9.45;77.71;101204.22;5041909;28;20050;-69
2024/03/20 03:10:14;;;;;;;5.07;1.65;;;;;;;9.43;77.83;101208.75;5043962;28;20267;-69
2024/03/20 03:12:40;;;;;;;6.25;1.90;;;;;;;9.43;79.51;101208.75;5045555;28;20056;-70
2024/03/20 03:15:06;;;;;;;4.30;1.23;;;;;;;9.40;80.18;101206.38;5044340;28;20033;-70
2024/03/20 03:17:31;;;;;;;5.07;1.60;;;;;;;9.40;79.91;101202.97;5039961;28;20074;-70
2024/03/20 03:19:57;;;;;;;5.75;1.80;;;;;;;9.35;77.17;101207.69;5042969;28;20052;-69
2024/03/20 03:22:22;;;;;;;6.47;1.98;;;;;;;9.33;78.37;101207.81;5041540;28;20132;-69
2024/03/20 03:24:48;;;;;;;4.45;1.80;;;;;;;9.40;79.46;101203.78;5039232;28;20040;-69
2024/03/20 03:27:13;;;;;;;5.90;1.73;;;;;;;9.44;80.63;101207.81;5039879;28;20116;-69
2024/03/20 03:29:39;;;;;;;4.13;1.83;;;;;;;9.42;80.53;101211.47;5043401;28;20037;-69
2024/03/20 03:32:04;;;;;;;8.35;1.60;;;;;;;9.43;80.06;101211.34;5046198;28;20045;-69
2024/03/20 03:34:30;;;;;;;2.08;1.10;;;;;;;9.42;80.17;101209.69;5036728;28;20187;-70
2024/03/20 03:36:56;;;;;;;4.78;1.80;;;;;;;9.39;79.77;101209.94;5040716;28;20464;-69
2024/03/20 03:39:21;;;;;;;8.23;1.55;;;;;;;9.39;80.64;101204.72;5047001;28;20045;-69
2024/03/20 03:41:47;;;;;;;4.53;2.28;;;;;;;9.35;79.85;101207.69;5037404;28;20025;-69
2024/03/20 03:44:12;;;;;;;6.35;2.13;;;;;;;9.37;79.21;101211.81;5038831;28;20037;-70
2024/03/20 03:46:37;;;;;;;7.32;1.95;;;;;;;9.35;79.81;101213.72;5045174;28;20053;-69
2024/03/20 03:49:03;;;;;;;4.63;1.75;;;;;;;9.31;79.64;101205.31;5042459;28;20045;-69
2024/03/20 03:51:29;;;;;;;5.95;2.08;;;;;;;9.30;78.29;101206.25;5042174;28;20549;-69
2024/03/20 03:53:55;;;;;;;5.13;2.00;;;;;;;9.27;78.50;101206.50;5034834;28;20044;-69
2024/03/20 03:56:20;;;;;;;3.97;1.35;;;;;;;9.25;78.03;101211.00;5041747;28;20028;-69
2024/03/20 03:58:46;;;;;;;3.40;1.55;;;;;;;9.19;77.72;101203.66;5046229;28;20045;-69
2024/03/20 04:01:13;;;;;;;6.28;1.77;;;;;;;9.20;78.34;101204.47;5038430;28;20187;-69
2024/03/20 04:03:39;;;;;;;5.75;1.67;;;;;;;9.23;78.27;101212.88;5047678;28;20029;-69
2024/03/20 04:06:04;;;;;;;4.10;1.73;;;;;;;9.21;77.72;101213.94;5047431;28;20025;-69
2024/03/20 04:08:30;;;;;;;3.85;1.90;;;;;;;9.21;77.91;101216.53;5042864;28;20123;-70
2024/03/20 04:10:55;;;;;;;6.28;1.73;;;;;;;9.20;79.14;101214.88;5048864;28;20025;-69
2024/03/20 04:13:21;;;;;;;3.50;1.67;;;;;;;9.14;79.94;101215.34;5048947;28;20488;-69
2024/03/20 04:15:47;;;;;;;4.75;2.50;;;;;;;9.11;79.12;101213.81;5045848;28;20041;-69
2024/03/20 04:18:12;;;;;;;7.07;2.83;;;;;;;9.14;79.33;101210.16;5042625;28;20032;-69
2024/03/20 04:20:38;;;;;;;3.55;1.83;;;;;;;9.17;77.88;101209.91;5044022;28;20492;-69
2024/03/20 04:23:03;;;;;;;5.82;1.95;;;;;;;9.12;79.59;101212.03;5042343;28;20033;-69
2024/03/20 04:25:29;;;;;;;2.80;1.50;;;;;;;9.11;78.79;101199.97;5042212;28;20041;-69
2024/03/20 04:27:58;;;;;;;4.95;2.08;;;;;;;9.13;79.09;101198.09;5049182;28;20055;-69
2024/03/20 04:30:23;;;;;;;3.67;1.27;;;;;;;9.10;79.53;101208.72;5041766;28;20033;-69
2024/03/20 04:32:49;;;;;;;2.30;1.30;;;;;;;9.08;79.67;101208.00;5048472;28;20047;-69
2024/03/20 04:35:14;;;;;;;8.13;1.63;;;;;;;9.06;79.01;101210.72;5049375;28;20041;-69
2024/03/20 04:37:39;;;;;;;4.45;1.58;;;;;;;9.08;77.40;101211.44;5050057;28;20026;-69
2024/03/20 04:40:06;;;;;;;5.38;1.40;;;;;;;9.15;79.64;101222.19;5028888;28;20025;-69
2024/03/20 04:42:33;;;;;;;2.83;1.35;;;;;;;9.15;80.57;101217.84;5048098;28;20388;-69
2024/03/20 04:45:00;;;;;;;4.35;1.67;;;;;;;9.10;81.70;101221.72;5045374;28;20060;-69
2024/03/20 04:47:25;;;;;;;6.57;1.92;;;;;;;9.05;82.49;101222.06;5047037;28;20102;-69
2024/03/20 04:49:51;;;;;;;11.10;2.40;;;;;;;9.00;82.07;101216.38;5053475;28;20480;-69
2024/03/20 04:52:16;;;;;;;9.85;2.15;;;;;;;9.01;82.87;101220.66;5050415;28;20502;-69
2024/03/20 04:54:42;;;;;;;5.68;2.00;;;;;;;8.97;82.46;101220.06;5051678;28;20024;-69
2024/03/20 04:57:07;;;;;;;4.13;1.25;;;;;;;8.98;83.06;101224.31;5050827;28;20025;-69
2024/03/20 04:59:32;;;;;;;2.85;1.55;;;;;;;8.95;83.96;101229.75;5044034;28;20025;-69
2024/03/20 05:01:58;;;;;;;5.60;1.38;;;;;;;8.91;83.96;101230.94;5044358;28;20060;-69
2024/03/20 05:04:23;;;;;;;5.13;1.80;;;;;;;8.86;84.99;101225.25;5044233;28;20033;-69
2024/03/20 05:06:49;;;;;;;7.00;1.70;;;;;;;8.82;85.17;101233.38;5040313;28;20066;-69
2024/03/20 05:09:14;;;;;;;6.30;1.65;;;;;;;8.76;84.94;101229.47;5043055;28;20034;-69
2024/03/20 05:11:40;;;;;;;3.85;1.77;;;;;;;8.71;84.77;101226.38;5041499;28;20041;-69
2024/03/20 05:14:05;;;;;;;6.63;2.42;;;;;;;8.66;84.85;101231.09;5045703;28;20033;-69
2024/03/20 05:16:31;;;;;;;4.20;1.77;;;;;;;8.76;82.42;101224.28;5042702;28;20611;-70
2024/03/20 05:18:56;;;;;;;5.75;1.60;;;;;;;8.81;80.65;101224.75;5046812;28;20029;-69
2024/03/20 05:21:22;;;;;;;5.38;2.05;;;;;;;8.96;79.92;101234.00;5044620;28;20039;-69
2024/03/20 05:23:47;;;;;;;12.38;2.28;;;;;;;9.04;78.74;101237.78;5046006;28;20150;-69
2024/03/20 05:26:13;;;;;;;3.45;1.95;;;;;;;9.07;77.12;101250.53;5058793;28;20086;-70
2024/03/20 05:28:39;;;;;;;4.82;2.15;;;;;;;9.05;79.52;101247.22;5044684;28;20068;-69
2024/03/20 05:31:05;;;;;;;5.90;2.55;;;;;;;9.01;79.19;101251.00;5048592;28;20650;-69
2024/03/20 05:33:30;;;;;;;7.65;2.17;;;;;;;9.02;79.83;101255.25;5044991;28;20025;-69
2024/03/20 05:35:55;;;;;;;5.32;2.53;;;;;;;8.97;80.51;101250.44;5038637;28;20423;-69
2024/03/20 05:38:21;;;;;;;6.22;2.42;;;;;;;8.86;80.76;101253.84;5045878;28;21272;-70
2024/03/20 05:40:46;;;;;;;8.38;2.13;;;;;;;8.83;81.31;101259.25;5048942;28;20025;-69
2024/03/20 05:43:12;;;;;;;6.78;2.22;;;;;;;8.77;81.35;101253.69;5039270;28;20497;-69
2024/03/20 05:45:37;;;;;;;6.50;2.33;;;;;;;8.80;79.89;101259.47;5044593;28;20028;-69
2024/03/20 05:48:03;;;;;;;5.15;2.78;;;;;;;8.94;79.81;101261.88;5047434;28;20163;-69
2024/03/20 05:50:30;;;;;;;7.60;2.25;;;;;;;9.03;78.62;101260.34;5044002;28;20032;-70
2024/03/20 05:52:55;;;;;;;5.75;2.20;;;;;;;9.05;76.42;101258.47;5042275;28;20047;-69
2024/03/20 05:55:22;;;;;;;6.95;2.28;;;;;;;9.08;76.41;101265.19;5048218;28;20029;-69
2024/03/20 05:57:50;;;;;;;4.30;2.05;;;;;;;9.07;76.79;101271.34;5049358;28;20029;-69
2024/03/20 06:00:20;;;;;;;5.75;1.85;;;;;;;9.09;76.08;101266.84;5045571;28;20044;-69
2024/03/20 06:02:47;;;;;;;8.02;2.25;;;;;;;9.08;77.12;101270.41;5044926;28;20091;-69
2024/03/20 06:05:13;;;;;;;4.43;1.98;;;;;;;9.14;77.56;101267.34;5048481;28;20049;-71
2024/03/20 06:07:39;;;;;;;9.25;2.40;;;;;;;9.21;76.61;101273.75;5049308;28;20067;-70
2024/03/20 06:10:08;;;;;;;5.75;2.38;;;;;;;9.30;75.19;101273.03;5046658;28;20568;-70
2024/03/20 06:12:33;;;;;;;6.70;2.22;;;;;;;9.38;76.30;101275.91;5045938;28;20029;-70
2024/03/20 06:14:59;;;;;;;3.78;2.20;;;;;;;9.41;75.24;101274.84;5051236;28;20044;-71
2024/03/20 06:17:24;;;;;;;5.50;1.83;;;;;;;9.40;75.24;101283.59;5047448;28;20033;-70
2024/03/20 06:19:50;;;;;;;8.85;2.63;;;;;;;9.37;75.62;101271.63;5040271;28;20025;-70
2024/03/20 06:22:16;;;;;;;7.40;1.92;;;;;;;9.31;75.13;101282.50;5045641;28;20033;-70
2024/03/20 06:24:41;;;;;;;8.18;2.83;;;;;;;9.29;74.98;101277.41;5044174;28;20025;-70
2024/03/20 06:27:06;;;;;;;8.18;2.83;;;;;;;9.36;76.80;101290.78;5050269;28;20037;-70
2024/03/20 06:29:32;;;;;;;7.15;2.70;;;;;;;9.44;76.83;101288.44;5044159;28;20029;-70
2024/03/20 06:31:58;;;;;;;6.30;2.85;;;;;;;9.50;76.36;101293.16;5043675;28;20068;-70
2024/03/20 06:34:23;;;;;;;10.27;2.97;;;;;;;9.55;74.48;101298.00;5046832;28;20029;-70
2024/03/20 06:36:48;;;;;;;7.10;2.65;;;;;;;9.61;74.80;101292.31;5042740;28;20029;-70
2024/03/20 06:39:14;;;;;;;10.95;2.92;;;;;;;9.72;76.26;101294.94;5041473;28;20492;-71
2024/03/20 06:41:43;;;;;;;4.10;1.98;;;;;;;9.71;74.43;101298.47;5043104;28;20459;-70
2024/03/20 06:44:09;;;;;;;8.63;2.53;;;;;;;9.69;73.77;101294.34;5041820;28;20063;-70
2024/03/20 06:46:34;;;;;;;5.38;1.90;;;;;;;9.79;74.41;101303.94;5042638;28;20099;-70
2024/03/20 06:49:02;;;;;;;4.20;2.20;;;;;;;9.93;74.11;101305.44;5048487;28;20037;-70
2024/03/20 06:51:32;;;;;;;11.13;2.25;;;;;;;10.04;73.80;101307.19;5043714;28;20025;-70
2024/03/20 06:53:57;;;;;;;6.70;1.92;;;;;;;10.14;74.32;101303.75;5036588;28;20035;-70
2024/03/20 06:56:23;;;;;;;11.43;2.17;;;;;;;10.27;72.38;101303.66;5042656;28;20052;-70
2024/03/20 06:58:48;;;;;;;5.97;2.05;;;;;;;10.36;71.37;101291.69;5042473;28;20095;-70
2024/03/20 07:01:13;;;;;;;5.15;1.60;;;;;;;10.57;71.74;101293.34;5043238;28;20039;-70
2024/03/20 07:03:40;;;;;;;6.07;2.00;;;;;;;10.59;71.04;101298.44;5041306;28;20036;-70
2024/03/20 07:06:05;;;;;;;3.25;1.80;;;;;;;10.75;71.88;101298.88;5037361;28;20033;-70
2024/03/20 07:08:31;;;;;;;6.10;2.17;;;;;;;10.64;69.92;101291.91;5034685;28;20028;-70
2024/03/20 07:10:57;;;;;;;5.88;1.63;;;;;;;10.84;72.75;101299.91;5041763;28;20029;-70
2024/03/20 07:13:22;;;;;;;4.38;2.25;;;;;;;10.89;71.27;101298.53;5042262;28;20127;-70
2024/03/20 07:15:47;;;;;;;5.22;1.83;;;;;;;11.19;72.27;101296.97;5035810;28;20084;-70
2024/03/20 07:18:13;;;;;;;3.88;2.05;;;;;;;11.13;69.38;101300.06;5037050;28;20438;-71
2024/03/20 07:20:38;;;;;;;6.78;2.47;;;;;;;11.11;70.48;101302.81;5037781;28;20048;-70
2024/03/20 07:23:04;;;;;;;5.72;1.73;;;;;;;11.30;71.68;101305.53;5041155;28;20036;-70
2024/03/20 07:25:31;;;;;;;4.35;2.08;;;;;;;11.42;71.22;101298.44;5037286;28;20427;-70
2024/03/20 07:27:57;;;;;;;10.23;2.58;;;;;;;11.54;70.21;101305.25;5035053;28;20042;-70
2024/03/20 07:30:22;;;;;;;3.50;1.25;;;;;;;11.70;69.80;101312.59;5043464;28;20040;-70
2024/03/20 07:32:49;;;;;;;6.75;1.83;;;;;;;11.93;70.86;101311.47;5046707;28;20051;-70
2024/03/20 07:35:15;;;;;;;10.27;2.50;;;;;;;12.21;71.58;101319.53;5036583;28;20038;-70
2024/03/20 07:37:43;;;;;;;6.20;1.77;;;;;;;12.38;71.75;101318.03;5047805;28;20045;-70
2024/03/20 07:40:08;;;;;;;7.55;2.20;;;;;;;12.68;70.59;101309.25;5041729;28;20037;-70
2024/03/20 07:42:34;;;;;;;9.52;2.53;;;;;;;12.50;68.52;101325.59;5039681;28;20187;-70
2024/03/20 07:45:00;;;;;;;7.43;2.25;;;;;;;12.45;71.08;101321.75;5044142;28;20025;-70
2024/03/20 07:47:26;;;;;;;4.68;2.38;;;;;;;12.55;71.34;101325.19;5045395;28;20032;-70
2024/03/20 07:49:52;;;;;;;6.13;2.03;;;;;;;12.46;66.98;101323.41;5039429;28;20430;-70
2024/03/20 07:52:17;;;;;;;5.95;2.50;;;;;;;12.37;70.71;101324.22;5040696;28;20041;-70
2024/03/20 07:54:43;;;;;;;6.57;1.73;;;;;;;12.55;70.92;101312.97;5045153;28;20463;-70
2024/03/20 07:57:09;;;;;;;10.77;2.30;;;;;;;12.77;70.00;101324.91;5046718;28;20040;-70
2024/03/20 07:59:34;;;;;;;7.45;2.40;;;;;;;12.93;69.24;101326.97;5044997;28;20036;-70
2024/03/20 08:01:59;;;;;;;4.20;1.63;;;;;;;13.16;69.01;101322.31;5043227;28;20029;-71
2024/03/20 08:04:25;;;;;;;3.20;1.90;;;;;;;13.02;65.37;101322.72;5042949;28;20024;-70
2024/03/20 08:06:52;;;;;;;8.18;2.72;;;;;;;13.15;69.12;101321.47;5040549;28;20025;-74
2024/03/20 08:09:18;;;;;;;5.20;1.70;;;;;;;13.16;70.04;101325.75;5043760;28;20067;-68
2024/03/20 08:11:44;;;;;;;7.75;2.30;;;;;;;13.47;68.65;101323.75;5043131;28;20453;-69
2024/03/20 08:14:10;;;;;;;4.40;1.73;;;;;;;13.45;69.13;101330.09;5031556;28;20041;-69
2024/03/20 08:16:37;;;;;;;4.35;1.70;;;;;;;13.47;70.18;101330.78;5036185;28;20030;-68
2024/03/20 08:19:03;;;;;;;5.57;2.00;;;;;;;13.43;67.39;101335.47;5045712;28;20029;-69
2024/03/20 08:21:29;;;;;;;3.85;2.03;;;;;;;13.31;65.63;101331.34;5040816;28;20036;-70
2024/03/20 08:23:56;;;;;;;6.50;1.42;;;;;;;13.49;67.68;101329.66;5038646;28;20036;-68
2024/03/20 08:26:21;;;;;;;5.25;1.67;;;;;;;13.51;65.86;101338.22;5043106;28;20029;-69
2024/03/20 08:28:47;;;;;;;7.00;1.80;;;;;;;13.39;66.47;101334.09;5041665;28;20033;-69
2024/03/20 08:31:12;;;;;;;5.25;2.00;;;;;;;13.46;67.02;101324.72;5037651;28;20496;-69
2024/03/20 08:33:38;;;;;;;7.25;1.90;;;;;;;13.61;68.96;101328.53;5041105;28;20739;-68
2024/03/20 08:36:08;;;;;;;7.80;2.15;;;;;;;13.61;64.57;101328.53;5044939;28;20033;-68
2024/03/20 08:38:34;;;;;;;7.38;1.60;;;;;;;13.62;64.34;101329.34;5046266;28;20532;-68
2024/03/20 08:40:59;;;;;;;3.65;1.98;;;;;;;13.87;68.23;101336.56;5049409;28;20116;-68
2024/03/20 08:43:25;;;;;;;3.90;2.10;;;;;;;13.82;64.53;101335.31;5041090;28;20033;-68
2024/03/20 08:45:52;;;;;;;6.38;1.77;;;;;;;14.19;68.48;101337.88;5049626;28;20027;-68
2024/03/20 08:48:18;;;;;;;3.67;1.95;;;;;;;14.56;64.99;101340.47;5042740;28;20025;-68
2024/03/20 08:50:43;;;;;;;6.68;1.90;;;;;;;14.26;66.51;101333.72;5049253;28;20032;-68
2024/03/20 08:53:12;;;;;;;4.22;1.77;;;;;;;14.37;65.29;101332.69;5048032;28;20037;-69
2024/03/20 08:55:38;;;;;;;3.70;1.80;;;;;;;14.60;66.02;101339.19;5044253;28;20033;-69
2024/03/20 08:58:05;;;;;;;6.20;1.52;;;;;;;14.82;68.09;101335.28;5043399;28;20032;-69
2024/03/20 09:00:31;;;;;;;2.80;1.65;;;;;;;15.10;68.39;101334.22;5043593;28;20306;-68
2024/03/20 09:02:56;;;;;;;5.30;1.70;;;;;;;15.39;66.87;101326.03;5044613;28;20033;-69
2024/03/20 09:05:22;;;;;;;2.70;1.42;;;;;;;15.33;66.05;101326.63;5047977;28;20045;-69
2024/03/20 09:07:48;;;;;;;7.60;1.67;;;;;;;15.62;69.57;101317.63;5044336;28;20266;-70
2024/03/20 09:10:13;;;;;;;5.47;1.65;;;;;;;15.76;69.44;101317.03;5043624;28;20072;-69
2024/03/20 09:12:39;;;;;;;3.83;1.75;;;;;;;15.60;70.72;101309.91;5047585;28;20037;-68
2024/03/20 09:15:05;;;;;;;4.32;1.40;;;;;;;15.36;71.44;101317.63;5049136;28;20404;-69
2024/03/20 09:17:31;;;;;;;6.07;1.90;;;;;;;15.35;71.98;101313.34;5051699;28;20078;-69
2024/03/20 09:19:56;;;;;;;4.63;1.70;;;;;;;15.13;71.33;101317.31;5053258;28;20025;-68
2024/03/20 09:22:22;;;;;;;4.93;1.75;;;;;;;14.98;71.77;101314.44;5046247;28;20033;-68
2024/03/20 09:24:47;;;;;;;4.35;1.50;;;;;;;14.73;68.96;101309.94;5045369;28;20136;-69
2024/03/20 09:27:13;;;;;;;5.15;1.40;;;;;;;14.58;69.86;101307.06;5043429;28;20036;-68
2024/03/20 09:29:39;;;;;;;5.10;1.90;;;;;;;14.71;69.97;101302.22;5047861;28;20040;-68
2024/03/20 09:32:06;;;;;;;3.70;2.10;;;;;;;14.41;67.37;101305.22;5051235;28;20392;-67
2024/03/20 09:34:32;;;;;;;3.95;1.63;;;;;;;14.38;69.99;101302.88;5043652;28;20025;-67
2024/03/20 09:36:58;;;;;;;5.63;2.00;;;;;;;14.41;69.33;101308.69;5052809;28;20063;-67
2024/03/20 09:39:23;;;;;;;3.38;1.50;;;;;;;14.42;68.08;101306.88;5052192;28;20029;-67
2024/03/20 09:41:49;;;;;;;3.92;1.77;;;;;;;14.32;69.08;101306.09;5052824;28;20036;-67
2024/03/20 09:44:15;;;;;;;3.72;1.73;;;;;;;14.19;68.30;101301.19;5046993;28;20041;-67
2024/03/20 09:46:41;;;;;;;3.55;1.42;;;;;;;14.14;67.61;101306.91;5047199;28;20025;-67
2024/03/20 09:49:08;;;;;;;7.50;2.10;;;;;;;14.01;67.05;101309.06;5046683;28;20025;-67
2024/03/20 09:51:35;;;;;;;5.53;2.15;;;;;;;14.00;65.83;101301.34;5047710;28;20033;-67
2024/03/20 09:54:01;;;;;;;3.33;1.25;;;;;;;14.02;69.00;101310.69;5043388;28;20037;-67
2024/03/20 09:56:28;;;;;;;4.95;2.05;;;;;;;14.14;69.23;101298.22;5043003;28;20121;-67
2024/03/20 09:58:56;;;;;;;3.17;1.35;;;;;;;14.19;69.81;101294.16;5040600;28;20389;-67
2024/03/20 10:01:22;;;;;;;5.15;1.98;;;;;;;14.22;69.06;101291.25;5038685;28;20537;-67
2024/03/20 10:03:53;;;;;;;3.90;1.95;;;;;;;14.22;67.15;101291.25;5041726;28;20127;-67
2024/03/20 10:06:27;;;;;;;5.10;1.75;;;;;;;14.25;70.14;101293.56;5042228;28;20120;-67
2024/03/20 10:08:53;;;;;;;4.35;1.80;;;;;;;14.12;67.09;101290.50;5040749;28;20108;-67
2024/03/20 10:11:19;;;;;;;6.43;2.70;;;;;;;14.14;66.14;101293.81;5041797;28;20124;-67
2024/03/20 10:13:44;;;;;;;5.50;1.75;;;;;;;14.15;68.32;101286.78;5040773;28;20103;-67
2024/03/20 10:16:14;;;;;;;7.22;1.85;;;;;;;14.22;67.55;101287.81;5040637;28;20033;-67
2024/03/20 10:18:41;;;;;;;5.10;1.88;;;;;;;14.32;68.56;101282.50;5039642;28;20048;-67
2024/03/20 10:21:07;;;;;;;3.15;1.70;;;;;;;14.41;69.33;101294.72;5040293;28;20040;-68
2024/03/20 10:23:41;;;;;;;3.38;1.73;;;;;;;14.42;69.50;101284.13;5045435;28;20063;-67
2024/03/20 10:26:07;;;;;;;3.13;1.55;;;;;;;14.34;70.25;101284.00;5044529;28;20025;-68
2024/03/20 10:28:35;;;;;;;6.75;1.65;;;;;;;14.31;70.95;101284.28;5043419;28;20120;-67
2024/03/20 10:31:05;;;;;;;2.83;1.40;;;;;;;14.41;67.07;101274.59;5036282;28;20037;-68
2024/03/20 10:33:32;;;;;;;2.45;1.60;;;;;;;14.51;66.74;101274.53;5042368;28;20040;-67
2024/03/20 10:35:59;;;;;;;3.20;1.30;;;;;;;14.56;68.74;101278.34;5040083;28;20053;-67
2024/03/20 10:38:27;;;;;;;6.60;1.77;;;;;;;14.72;69.42;101271.56;5041027;28;20025;-67
2024/03/20 10:40:54;;;;;;;9.63;1.70;;;;;;;14.73;69.76;101271.44;5041970;28;20538;-67
2024/03/20 10:43:21;;;;;;;4.28;1.63;;;;;;;14.80;66.64;101274.25;5044026;28;20037;-67
2024/03/20 10:45:48;;;;;;;3.95;1.90;;;;;;;14.86;67.99;101268.41;5041814;28;20017;-67
2024/03/20 10:48:21;;;;;;;2.78;1.10;;;;;;;14.96;67.59;101269.16;5041543;28;20037;-68
2024/03/20 10:50:49;;;;;;;2.67;1.23;;;;;;;14.94;67.91;101263.22;5040241;28;20071;-67
2024/03/20 10:53:15;;;;;;;4.22;1.10;;;;;;;14.82;69.48;101273.13;5043312;28;20106;-67
2024/03/20 10:55:53;;;;;;;2.78;1.08;;;;;;;14.60;65.61;101260.53;5042400;28;20037;-67
2024/03/20 10:58:19;;;;;;;2.97;1.08;;;;;;;14.49;69.38;101266.00;5041527;28;20041;-67
2024/03/20 11:00:55;;;;;;;3.45;0.95;;;;;;;14.66;68.46;101261.69;5039145;28;20032;-67
2024/03/20 11:03:42;;;;;;;4.57;1.33;;;;;;;14.68;68.41;101268.44;5041290;28;20044;-69
2024/03/20 11:06:39;;;;;;;2.97;1.17;;;;;;;14.65;65.36;101255.63;5040028;28;20052;-69
2024/03/20 11:09:07;;;;;;;4.00;1.10;;;;;;;14.70;69.36;101263.84;5039535;28;20037;-69
2024/03/20 11:11:33;;;;;;;3.10;1.15;;;;;;;14.77;70.42;101256.22;5041761;28;20093;-69
2024/03/20 11:14:02;;;;;;;3.53;1.20;;;;;;;14.75;69.40;101258.97;5039887;28;20382;-69
2024/03/20 11:16:28;;;;;;;2.47;0.88;;;;;;;14.77;69.13;101253.59;5042639;28;20458;-70
2024/03/20 11:18:54;;;;;;;2.55;1.23;;;;;;;14.83;70.14;101248.56;5040604;28;20068;-69
2024/03/20 11:21:21;;;;;;;3.17;1.13;;;;;;;14.87;69.75;101247.28;5041481;28;20189;-69
2024/03/20 11:23:50;;;;;;;3.35;1.02;;;;;;;14.85;68.93;101237.91;5042523;28;20029;-69
2024/03/20 11:26:19;;;;;;;2.35;0.95;;;;;;;14.87;70.32;101247.28;5041908;28;20369;-69